createdAt,value
2019-05-02T00:03:31.039Z,71.97
2019-05-02T00:08:33.172Z,72.32
2019-05-02T00:13:35.670Z,71.65
2019-05-02T00:18:38.887Z,71.73
2019-05-02T00:23:40.304Z,71.74
2019-05-02T00:28:42.915Z,72.19
2019-05-02T00:33:44.849Z,74.63
2019-05-02T00:38:46.318Z,74.13
2019-05-02T00:43:47.690Z,73.51
2019-05-02T00:48:49.307Z,73.62
2019-05-02T00:53:50.596Z,72.95
2019-05-02T00:58:52.188Z,74.31
2019-05-02T01:03:53.816Z,74.76
2019-05-02T01:08:55.661Z,73.53
2019-05-02T01:13:57.743Z,73.00
2019-05-02T01:18:59.116Z,72.66
2019-05-02T01:24:03.076Z,72.07
2019-05-02T01:29:03.654Z,72.61
2019-05-02T01:34:05.058Z,73.13
2019-05-02T01:39:07.620Z,72.69
2019-05-02T01:44:09.579Z,72.66
2019-05-02T01:49:10.816Z,72.34
2019-05-02T01:54:12.376Z,72.52
2019-05-02T01:59:13.623Z,72.42
2019-05-02T02:04:16.152Z,72.32
2019-05-02T02:09:18.051Z,72.34
2019-05-02T02:14:19.638Z,73.10
2019-05-02T02:19:21.035Z,72.89
2019-05-02T02:24:25.254Z,73.40
2019-05-02T02:29:26.137Z,72.95
2019-05-02T02:34:29.920Z,72.79
2019-05-02T02:39:30.915Z,72.45
2019-05-02T02:44:33.582Z,73.73
2019-05-02T02:49:35.574Z,73.65
2019-05-02T02:54:43.086Z,74.95
2019-05-02T02:59:40.162Z,76.16
2019-05-02T03:04:43.925Z,75.13
2019-05-02T03:09:44.556Z,74.99
2019-05-02T03:14:47.272Z,75.00
2019-05-02T03:19:54.209Z,74.53
2019-05-02T03:24:52.062Z,74.17
2019-05-02T03:29:53.272Z,74.56
2019-05-02T03:34:54.732Z,74.29
2019-05-02T03:40:00.188Z,74.15
2019-05-02T03:45:04.398Z,73.81
2019-05-02T03:50:03.358Z,73.81
2019-05-02T03:55:04.592Z,73.91
2019-05-02T04:00:05.853Z,74.24
2019-05-02T04:05:07.181Z,74.39
2019-05-02T04:10:13.348Z,74.18
2019-05-02T04:15:12.719Z,74.64
2019-05-02T04:20:14.103Z,74.47
2019-05-02T04:25:15.507Z,74.22
2019-05-02T04:30:16.756Z,73.87
2019-05-02T04:35:18.360Z,77.03
2019-05-02T04:40:20.029Z,76.33
2019-05-02T04:45:28.738Z,75.87
2019-05-02T04:50:29.265Z,75.42
2019-05-02T04:55:33.265Z,74.74
2019-05-02T05:00:32.939Z,73.93
2019-05-02T05:05:34.586Z,73.50
2019-05-02T05:10:41.450Z,72.85
2019-05-02T05:15:48.369Z,72.18
2019-05-02T05:20:46.051Z,71.50
2019-05-02T05:25:47.907Z,70.98
2019-05-02T05:30:52.235Z,70.64
2019-05-02T05:35:53.427Z,70.17
2019-05-02T05:40:55.216Z,69.87
2019-05-02T05:46:09.071Z,69.81
2019-05-02T05:51:00.022Z,69.66
2019-05-02T05:56:02.597Z,68.79
2019-05-02T06:01:07.035Z,68.59
2019-05-02T06:06:09.748Z,69.00
2019-05-02T06:11:10.510Z,69.06
2019-05-02T06:16:15.041Z,68.71
2019-05-02T06:21:17.079Z,68.64
2019-05-02T06:26:19.404Z,69.34
2019-05-02T06:31:20.699Z,69.10
2019-05-02T06:36:21.986Z,70.41
2019-05-02T06:41:23.604Z,71.09
2019-05-02T06:46:36.443Z,70.76
2019-05-02T06:51:38.000Z,71.13
2019-05-02T06:56:43.048Z,71.86
2019-05-02T07:01:42.682Z,71.13
2019-05-02T07:06:57.669Z,70.97
2019-05-02T07:11:56.915Z,70.63
2019-05-02T07:16:54.634Z,71.04
2019-05-02T07:21:58.424Z,71.19
2019-05-02T07:26:58.156Z,70.59
2019-05-02T07:31:59.475Z,70.65
2019-05-02T07:37:00.976Z,69.81
2019-05-02T07:42:05.809Z,71.14
2019-05-02T07:47:05.689Z,70.54
2019-05-02T07:52:07.029Z,69.48
2019-05-02T07:57:08.399Z,69.75
2019-05-02T08:02:09.794Z,68.62
2019-05-02T08:07:11.286Z,68.08
2019-05-02T08:12:12.526Z,67.53
2019-05-02T08:17:16.976Z,64.69
2019-05-02T08:22:17.404Z,63.62
2019-05-02T08:27:18.647Z,63.52
2019-05-02T08:32:20.190Z,61.23
2019-05-02T08:37:21.444Z,57.82
2019-05-02T08:42:22.794Z,56.80
2019-05-02T08:47:28.516Z,56.08
2019-05-02T08:52:27.306Z,55.41
2019-05-02T08:57:30.084Z,54.77
2019-05-02T09:02:41.086Z,55.29
2019-05-02T09:07:37.095Z,55.32
2019-05-02T09:12:43.650Z,54.59
2019-05-02T09:17:44.624Z,53.25
2019-05-02T09:22:51.387Z,53.49
2019-05-02T09:27:49.997Z,53.73
2019-05-02T09:32:52.179Z,53.66
2019-05-02T09:37:54.121Z,53.15
2019-05-02T09:43:00.006Z,53.22
2019-05-02T09:48:05.160Z,52.16
2019-05-02T09:53:02.122Z,52.73
2019-05-02T09:58:03.467Z,55.03
2019-05-02T10:03:05.243Z,55.39
2019-05-02T10:08:09.110Z,57.49
2019-05-02T10:13:12.067Z,60.08
2019-05-02T10:18:14.593Z,63.18
2019-05-02T10:23:19.482Z,63.85
2019-05-02T10:28:19.976Z,64.98
2019-05-02T10:33:22.532Z,65.19
2019-05-02T10:38:24.215Z,66.79
2019-05-02T10:43:25.460Z,66.38
2019-05-02T10:48:28.624Z,66.96
2019-05-02T10:53:32.137Z,66.86
2019-05-02T10:58:35.723Z,66.49
2019-05-02T11:03:38.120Z,66.25
2019-05-02T11:08:42.242Z,65.98
2019-05-02T11:13:43.263Z,65.31
2019-05-02T11:18:45.315Z,66.80
2019-05-02T11:23:46.666Z,65.97
2019-05-02T11:28:48.222Z,67.88
2019-05-02T11:33:49.909Z,69.87
2019-05-02T11:38:59.556Z,72.30
2019-05-02T11:43:55.841Z,72.34
2019-05-02T11:48:58.667Z,73.52
2019-05-02T11:54:05.179Z,74.22
2019-05-02T11:59:04.475Z,73.11
2019-05-02T12:04:07.576Z,71.56
2019-05-02T12:09:08.902Z,71.76
2019-05-02T12:14:12.224Z,73.04
2019-05-02T12:19:14.935Z,73.28
2019-05-02T12:24:16.475Z,73.45
2019-05-02T12:29:18.065Z,74.66
2019-05-02T12:34:21.594Z,74.70
2019-05-02T12:39:22.916Z,75.35
2019-05-02T12:44:24.501Z,76.22
2019-05-02T12:49:28.014Z,75.63
2019-05-02T12:54:29.444Z,75.29
2019-05-02T12:59:32.194Z,75.47
2019-05-02T13:04:33.689Z,74.09
2019-05-02T13:09:35.031Z,73.80
2019-05-02T13:14:37.581Z,75.24
2019-05-02T13:19:41.369Z,74.92
2019-05-02T13:24:42.379Z,75.20
2019-05-02T13:29:43.761Z,75.78
2019-05-02T13:34:48.703Z,74.57
2019-05-02T13:39:48.429Z,74.02
2019-05-02T13:44:49.678Z,74.22
2019-05-02T13:49:54.869Z,73.81
2019-05-02T13:54:56.790Z,73.08
2019-05-02T13:59:58.054Z,72.61
2019-05-02T14:04:59.424Z,72.09
2019-05-02T14:10:02.472Z,70.13
2019-05-02T14:15:04.208Z,69.69
2019-05-02T14:20:10.753Z,68.60
2019-05-02T14:25:08.766Z,67.34
2019-05-02T14:30:12.003Z,66.78
2019-05-02T14:35:13.612Z,66.93
2019-05-02T14:40:15.514Z,66.44
2019-05-02T14:45:27.235Z,65.63
2019-05-02T14:50:24.299Z,66.98
2019-05-02T14:55:25.615Z,67.09
2019-05-02T15:00:33.388Z,66.34
2019-05-02T15:05:30.376Z,65.09
2019-05-02T15:10:35.047Z,65.00
2019-05-02T15:15:40.714Z,64.47
2019-05-02T15:20:39.472Z,64.69
2019-05-02T15:25:42.368Z,64.20
2019-05-02T15:30:49.188Z,63.60
2019-05-02T15:35:47.381Z,62.19
2019-05-02T15:40:51.467Z,63.50
2019-05-02T15:45:52.730Z,62.39
2019-05-02T15:50:55.350Z,61.70
2019-05-02T15:55:57.588Z,62.32
2019-05-02T16:01:01.715Z,60.79
2019-05-02T16:06:02.322Z,60.53
2019-05-02T16:11:03.637Z,60.92
2019-05-02T16:16:05.576Z,59.25
2019-05-02T16:21:08.001Z,59.12
2019-05-02T16:26:09.418Z,55.10
2019-05-02T16:31:12.574Z,52.21
2019-05-02T16:36:14.095Z,50.26
2019-05-02T16:41:15.343Z,49.00
2019-05-02T16:46:16.714Z,53.11
2019-05-02T16:51:30.305Z,55.00
2019-05-02T16:56:22.276Z,55.75
2019-05-02T17:01:27.517Z,55.40
2019-05-02T17:06:27.207Z,56.92
2019-05-02T17:11:34.122Z,58.27
2019-05-02T17:16:31.890Z,59.25
2019-05-02T17:21:52.343Z,58.41
2019-05-02T17:26:36.749Z,58.56
2019-05-02T17:31:40.295Z,58.81
2019-05-02T17:36:43.021Z,59.04
2019-05-02T17:41:45.760Z,58.78
2019-05-02T17:46:50.811Z,59.01
2019-05-02T17:51:51.882Z,59.17
2019-05-02T17:56:57.628Z,60.33
2019-05-02T18:01:56.753Z,60.68
2019-05-02T18:06:58.373Z,59.01
2019-05-02T18:12:01.509Z,59.51
2019-05-02T18:17:02.987Z,60.18
2019-05-02T18:22:07.158Z,60.22
2019-05-02T18:27:08.079Z,60.86
2019-05-02T18:32:17.454Z,61.56
2019-05-02T18:37:17.869Z,62.30
2019-05-02T18:42:22.115Z,63.00
2019-05-02T18:47:24.801Z,63.29
2019-05-02T18:52:36.414Z,63.74
2019-05-02T18:57:30.391Z,64.15
2019-05-02T19:02:35.415Z,64.48
2019-05-02T19:07:35.916Z,64.72
2019-05-02T19:12:37.321Z,65.17
2019-05-02T19:17:40.519Z,66.11
2019-05-02T19:22:48.802Z,66.39
2019-05-02T19:27:45.922Z,65.93
2019-05-02T19:32:47.723Z,66.27
2019-05-02T19:37:49.335Z,66.39
2019-05-02T19:42:52.695Z,66.64
2019-05-02T19:47:57.695Z,67.14
2019-05-02T19:53:02.063Z,67.71
2019-05-02T19:58:06.266Z,67.93
2019-05-02T20:03:05.608Z,68.31
2019-05-02T20:08:09.695Z,68.70
2019-05-02T20:13:12.017Z,68.83
2019-05-02T20:18:14.918Z,69.93
2019-05-02T20:23:18.768Z,69.13
2019-05-02T20:28:21.312Z,70.07
2019-05-02T20:33:23.212Z,69.50
2019-05-02T20:38:24.917Z,69.07
2019-05-02T20:43:26.724Z,69.61
2019-05-02T20:48:28.676Z,69.81
2019-05-02T20:53:33.378Z,70.29
2019-05-02T20:58:33.272Z,71.22
2019-05-02T21:03:35.012Z,72.08
2019-05-02T21:08:36.443Z,72.15
2019-05-02T21:13:37.715Z,71.72
2019-05-02T21:18:39.023Z,71.98
2019-05-02T21:23:44.773Z,72.11
2019-05-02T21:28:46.103Z,71.67
2019-05-02T21:33:47.080Z,71.70
2019-05-02T21:38:48.791Z,71.51
2019-05-02T21:43:51.895Z,71.33
2019-05-02T21:48:53.783Z,71.29
2019-05-02T21:53:58.144Z,71.49
2019-05-02T21:58:58.266Z,71.61
2019-05-02T22:03:59.673Z,71.52
2019-05-02T22:09:02.903Z,71.87
2019-05-02T22:14:04.646Z,72.50
2019-05-02T22:19:06.185Z,72.75
2019-05-02T22:24:11.499Z,72.52
2019-05-02T22:29:12.341Z,72.74
2019-05-02T22:34:13.983Z,72.40
2019-05-02T22:39:15.620Z,72.35
2019-05-02T22:44:16.902Z,72.06
2019-05-02T22:49:18.289Z,71.83
2019-05-02T22:54:29.966Z,72.02
2019-05-02T22:59:24.031Z,71.94
2019-05-02T23:04:25.734Z,71.86
2019-05-02T23:09:27.128Z,71.50
2019-05-02T23:14:28.664Z,71.65
2019-05-02T23:19:31.698Z,71.95
2019-05-02T23:24:39.069Z,72.12
2019-05-02T23:29:36.453Z,71.97
2019-05-02T23:34:38.016Z,71.96
2019-05-02T23:39:39.273Z,72.00
2019-05-02T23:44:42.553Z,72.40
2019-05-02T23:49:44.086Z,72.81
2019-05-02T23:54:51.774Z,72.55
2019-05-02T23:59:49.169Z,72.42
